Time;durP1;ratioP1;P1;durP2;ratioP2;P2;SDS_P1;SDS_P2;PMS_P1;PMS_P2;Temp;Humidity;BMP_temperature;BMP_pressure;BME280_temperature;BME280_humidity;BME280_pressure;Samples;Min_cycle;Max_cycle;Signal;HPM_P1;HPM_P2
2021/04/01 00:00:47;;;;;;;20.33;14.03;;;13.50;99.90;;;;;;5056515;28;20426;-85
2021/04/01 00:03:14;;;;;;;20.73;15.00;;;13.00;99.90;;;;;;5055858;28;20473;-85
2021/04/01 00:05:41;;;;;;;20.37;14.10;;;13.50;99.90;;;;;;5044285;28;20457;-85
2021/04/01 00:08:07;;;;;;;23.53;15.07;;;13.80;99.90;;;;;;5047609;28;20505;-85
2021/04/01 00:10:38;;;;;;;22.83;13.60;;;13.40;99.90;;;;;;5049599;28;20952;-85
2021/04/01 00:13:05;;;;;;;20.27;13.93;;;14.00;99.90;;;;;;5050362;28;20462;-85
2021/04/01 00:15:33;;;;;;;18.13;14.00;;;13.30;99.90;;;;;;5050921;28;20450;-84
2021/04/01 00:17:59;;;;;;;18.17;13.10;;;13.50;99.90;;;;;;5051600;28;20469;-85
2021/04/01 00:20:27;;;;;;;17.80;13.40;;;13.50;99.90;;;;;;5051600;28;20450;-85
2021/04/01 00:22:53;;;;;;;21.93;15.43;;;13.10;99.90;;;;;;5052194;28;20472;-85
2021/04/01 00:25:19;;;;;;;19.63;13.90;;;13.70;99.90;;;;;;5051730;28;20450;-85
2021/04/01 00:27:46;;;;;;;21.23;13.13;;;13.20;99.90;;;;;;5055833;28;20466;-85
2021/04/01 00:30:13;;;;;;;21.90;13.37;;;13.50;99.90;;;;;;5054085;28;20458;-84
2021/04/01 00:32:40;;;;;;;19.97;12.60;;;13.70;99.90;;;;;;5054779;28;20467;-85
2021/04/01 00:35:08;;;;;;;18.20;13.17;;;13.70;99.90;;;;;;5055869;28;20435;-85
2021/04/01 00:37:34;;;;;;;18.27;12.07;;;13.60;99.90;;;;;;5055215;28;20458;-84
2021/04/01 00:40:01;;;;;;;20.07;12.93;;;13.60;99.90;;;;;;5053482;28;20945;-84
2021/04/01 00:42:27;;;;;;;20.20;13.40;;;13.50;99.90;;;;;;5053134;28;20427;-85
2021/04/01 00:44:59;;;;;;;21.03;12.70;;;12.40;99.90;;;;;;5052443;28;20446;-85
2021/04/01 00:47:26;;;;;;;21.83;13.40;;;13.40;99.90;;;;;;5052236;28;20462;-84
2021/04/01 00:49:52;;;;;;;16.53;13.03;;;13.40;99.90;;;;;;5051994;28;20481;-84
2021/04/01 00:52:25;;;;;;;18.80;14.30;;;13.90;99.90;;;;;;5052402;28;20461;-85
2021/04/01 00:54:51;;;;;;;19.37;12.40;;;13.60;99.90;;;;;;5052513;28;20426;-84
2021/04/01 00:57:18;;;;;;;17.17;12.27;;;;;;;;;;5050863;28;20462;-85
2021/04/01 00:59:44;;;;;;;18.90;12.07;;;13.00;99.90;;;;;;5050599;28;20446;-85
2021/04/01 01:02:11;;;;;;;28.63;12.27;;;13.10;99.90;;;;;;5049432;28;20514;-85
2021/04/01 01:04:41;;;;;;;17.90;11.63;;;12.80;99.90;;;;;;5048121;28;20443;-85
2021/04/01 01:07:09;;;;;;;21.50;12.70;;;13.00;99.90;;;;;;5049125;28;20474;-85
2021/04/01 01:09:35;;;;;;;25.13;12.27;;;13.00;99.90;;;;;;5044978;28;20447;-85
2021/04/01 01:12:01;;;;;;;18.83;12.13;;;13.00;99.90;;;;;;5044618;28;20587;-85
2021/04/01 01:14:30;;;;;;;18.53;12.30;;;12.90;99.90;;;;;;5046028;28;20446;-85
2021/04/01 01:16:57;;;;;;;16.10;11.80;;;13.10;99.90;;;;;;5048982;28;20470;-85
2021/04/01 01:19:23;;;;;;;17.47;12.90;;;12.90;99.90;;;;;;5049424;28;20458;-84
2021/04/01 01:21:49;;;;;;;19.87;12.23;;;12.70;99.90;;;;;;5049328;28;20453;-85
2021/04/01 01:24:17;;;;;;;15.80;12.23;;;12.40;99.90;;;;;;5048724;28;20424;-85
2021/04/01 01:26:45;;;;;;;19.27;13.07;;;12.80;99.90;;;;;;5046698;28;20454;-85
2021/04/01 01:29:12;;;;;;;20.60;13.20;;;12.60;99.90;;;;;;5047623;28;20524;-85
2021/04/01 01:31:44;;;;;;;20.00;12.30;;;12.80;99.90;;;;;;5047334;28;20454;-85
2021/04/01 01:34:10;;;;;;;23.20;14.33;;;12.90;99.90;;;;;;5046105;28;20549;-85
2021/04/01 01:36:36;;;;;;;14.70;12.10;;;12.20;99.90;;;;;;5045577;28;20458;-85
2021/04/01 01:39:03;;;;;;;19.10;12.40;;;12.00;99.90;;;;;;5046267;28;20438;-85
2021/04/01 01:41:30;;;;;;;16.20;12.27;;;12.80;99.90;;;;;;5045209;28;20455;-85
2021/04/01 01:44:00;;;;;;;21.30;12.30;;;12.50;99.90;;;;;;5044995;28;20514;-85
2021/04/01 01:46:27;;;;;;;16.83;11.20;;;;;;;;;;5046726;28;20497;-85
2021/04/01 01:48:55;;;;;;;19.83;12.83;;;12.40;99.90;;;;;;5047974;28;20485;-85
2021/04/01 01:51:21;;;;;;;19.57;12.10;;;12.30;99.90;;;;;;5047478;28;20446;-85
2021/04/01 01:53:48;;;;;;;14.60;10.90;;;12.40;99.90;;;;;;5045571;28;20486;-85
2021/04/01 01:56:18;;;;;;;19.83;12.87;;;12.40;99.90;;;;;;5046082;28;20576;-85
2021/04/01 01:58:46;;;;;;;17.10;12.60;;;12.40;99.90;;;;;;5044790;28;20452;-85
2021/04/01 02:01:12;;;;;;;14.73;11.50;;;12.30;99.90;;;;;;5045114;28;20458;-85
2021/04/01 02:03:38;;;;;;;15.30;11.13;;;12.40;99.90;;;;;;5043735;28;20448;-85
2021/04/01 02:06:06;;;;;;;13.70;10.40;;;;;;;;;;5044696;28;20458;-84
2021/04/01 02:08:32;;;;;;;16.10;12.00;;;12.20;99.90;;;;;;5044900;28;20479;-85
2021/04/01 02:11:01;;;;;;;15.10;12.13;;;12.20;99.90;;;;;;5049318;28;20447;-85
2021/04/01 02:13:27;;;;;;;21.00;12.87;;;12.30;99.90;;;;;;5045438;28;20449;-85
2021/04/01 02:15:57;;;;;;;15.67;11.43;;;12.20;99.90;;;;;;5045127;28;20478;-84
2021/04/01 02:18:25;;;;;;;17.47;11.50;;;12.20;99.90;;;;;;5044606;28;20505;-84
2021/04/01 02:20:53;;;;;;;13.33;11.20;;;12.00;99.90;;;;;;5044930;28;20455;-85
2021/04/01 02:23:24;;;;;;;16.07;12.17;;;12.30;99.90;;;;;;5050522;28;20435;-84
2021/04/01 02:25:52;;;;;;;15.03;11.67;;;12.30;99.90;;;;;;5053252;28;20430;-84
2021/04/01 02:28:21;;;;;;;21.23;12.27;;;12.30;99.90;;;;;;5047251;28;20467;-85
2021/04/01 02:30:49;;;;;;;13.70;10.53;;;12.30;99.90;;;;;;5046839;28;20441;-84
2021/04/01 02:33:18;;;;;;;19.20;12.87;;;12.20;99.90;;;;;;5045858;28;20540;-85
2021/04/01 02:35:44;;;;;;;18.30;11.97;;;12.30;99.90;;;;;;5046729;28;20454;-85
2021/04/01 02:38:11;;;;;;;14.67;10.33;;;12.00;99.90;;;;;;5049456;28;20497;-84
2021/04/01 02:40:38;;;;;;;15.10;11.60;;;12.20;99.90;;;;;;5048000;28;20926;-85
2021/04/01 02:43:06;;;;;;;17.47;11.23;;;12.00;99.90;;;;;;5044807;28;20481;-85
2021/04/01 02:45:33;;;;;;;19.83;11.73;;;11.90;99.90;;;;;;5048081;28;20504;-85
2021/04/01 02:47:59;;;;;;;12.53;9.47;;;12.30;99.90;;;;;;5050816;28;20463;-85
2021/04/01 02:50:26;;;;;;;19.43;11.00;;;11.90;99.90;;;;;;5048232;28;20469;-85
2021/04/01 02:52:53;;;;;;;17.47;11.40;;;11.00;99.90;;;;;;5046346;28;20474;-85
2021/04/01 02:55:20;;;;;;;15.13;11.63;;;12.10;99.90;;;;;;5045930;28;20453;-85
2021/04/01 02:57:47;;;;;;;18.73;10.87;;;;;;;;;;5049111;28;20453;-85
2021/04/01 03:00:18;;;;;;;14.70;11.50;;;12.10;99.90;;;;;;5053649;28;20447;-84
2021/04/01 03:02:50;;;;;;;21.30;12.37;;;12.20;99.90;;;;;;5049208;28;20442;-84
2021/04/01 03:05:16;;;;;;;15.80;11.20;;;12.20;99.90;;;;;;5046852;28;20459;-86
2021/04/01 03:07:43;;;;;;;19.87;11.70;;;12.10;99.90;;;;;;5047184;28;20520;-85
2021/04/01 03:10:11;;;;;;;18.40;10.97;;;12.20;99.90;;;;;;5051087;28;20425;-85
2021/04/01 03:12:38;;;;;;;19.33;11.63;;;12.00;99.90;;;;;;5052233;28;20478;-86
2021/04/01 03:15:06;;;;;;;18.03;10.43;;;12.10;99.90;;;;;;5051295;28;20442;-84
2021/04/01 03:17:32;;;;;;;18.13;11.97;;;12.10;99.90;;;;;;5052012;28;20466;-85
2021/04/01 03:19:59;;;;;;;17.97;14.13;;;12.00;99.90;;;;;;5050990;28;20451;-85
2021/04/01 03:22:25;;;;;;;18.37;11.20;;;12.00;99.90;;;;;;5048882;28;20500;-84
2021/04/01 03:24:52;;;;;;;17.10;11.13;;;12.00;99.90;;;;;;5047004;28;20454;-84
2021/04/01 03:27:18;;;;;;;14.37;10.47;;;12.00;99.90;;;;;;5045679;28;20474;-85
2021/04/01 03:30:02;;;;;;;15.90;10.90;;;12.20;99.90;;;;;;5043672;28;20438;-84
2021/04/01 03:32:29;;;;;;;19.37;11.80;;;12.10;99.90;;;;;;5042564;28;20454;-84
2021/04/01 03:34:55;;;;;;;22.43;10.80;;;11.90;99.90;;;;;;5043061;28;20477;-84
2021/04/01 03:37:21;;;;;;;17.97;10.83;;;12.00;99.90;;;;;;5043444;28;20476;-84
2021/04/01 03:39:50;;;;;;;16.33;11.13;;;11.80;99.90;;;;;;5043373;28;20797;-85
2021/04/01 03:42:18;;;;;;;16.30;10.93;;;11.90;99.90;;;;;;5043852;28;20499;-85
2021/04/01 03:44:44;;;;;;;18.53;12.00;;;11.90;99.90;;;;;;5043916;28;20454;-84
2021/04/01 03:47:11;;;;;;;18.73;11.80;;;11.50;99.90;;;;;;5043874;28;20481;-85
2021/04/01 03:49:37;;;;;;;17.03;11.93;;;12.50;99.90;;;;;;5045023;28;20417;-84
2021/04/01 03:52:04;;;;;;;20.17;12.20;;;11.90;99.90;;;;;;5044261;28;20481;-84
2021/04/01 03:54:31;;;;;;;22.20;11.23;;;12.00;99.90;;;;;;5043778;28;20446;-85
2021/04/01 03:56:59;;;;;;;19.70;11.20;;;11.40;99.90;;;;;;5042530;28;20473;-85
2021/04/01 03:59:28;;;;;;;21.10;12.50;;;12.00;99.90;;;;;;5041414;28;20477;-84
2021/04/01 04:02:11;;;;;;;16.58;11.23;;;12.00;99.90;;;;;;5042006;28;20942;-84
2021/04/01 04:04:48;;;;;;;18.80;11.70;;;11.70;99.90;;;;;;5044220;28;20194;-85
2021/04/01 04:07:33;;;;;;;19.50;11.60;;;11.90;99.90;;;;;;5044448;28;20504;-84
2021/04/01 04:10:16;;;;;;;28.30;12.83;;;11.70;99.90;;;;;;5048954;28;20433;-84
2021/04/01 04:12:53;;;;;;;21.17;12.60;;;12.10;99.90;;;;;;5048354;28;20440;-84
2021/04/01 04:15:22;;;;;;;15.50;10.40;;;11.50;99.90;;;;;;5050782;28;20438;-85
2021/04/01 04:17:49;;;;;;;18.50;11.77;;;;;;;;;;5052039;28;20436;-85
2021/04/01 04:20:16;;;;;;;16.37;11.80;;;12.00;99.90;;;;;;5053671;28;20439;-85
2021/04/01 04:22:43;;;;;;;16.60;13.77;;;;;;;;;;5051173;28;20558;-84
2021/04/01 04:25:11;;;;;;;22.50;12.20;;;12.20;99.90;;;;;;5051137;28;20446;-85
2021/04/01 04:30:20;;;;;;;17.87;12.03;;;12.10;99.90;;;;;;5048901;28;20450;-84
2021/04/01 04:32:47;;;;;;;24.77;13.40;;;12.10;99.90;;;;;;5049934;28;20490;-84
2021/04/01 04:35:13;;;;;;;20.77;13.07;;;12.30;99.90;;;;;;5049034;28;20483;-84
2021/04/01 04:37:39;;;;;;;21.33;12.10;;;12.20;99.90;;;;;;5046106;28;20470;-85
2021/04/01 04:40:08;;;;;;;23.00;14.47;;;12.20;99.90;;;;;;5043483;28;20450;-85
2021/04/01 04:42:34;;;;;;;17.77;12.63;;;12.10;99.90;;;;;;5043495;28;20449;-85
2021/04/01 04:45:00;;;;;;;19.17;12.47;;;12.20;99.90;;;;;;5041945;28;20415;-85
2021/04/01 04:47:30;;;;;;;18.50;12.50;;;11.70;99.90;;;;;;5039127;28;20477;-86
2021/04/01 04:49:56;;;;;;;19.37;12.97;;;11.60;99.90;;;;;;5044989;28;20454;-85
2021/04/01 04:52:23;;;;;;;22.70;14.40;;;12.70;99.90;;;;;;5055540;28;20489;-86
2021/04/01 04:54:49;;;;;;;20.47;12.27;;;;;;;;;;5057260;28;20477;-84
2021/04/01 04:57:20;;;;;;;21.70;12.97;;;;;;;;;;5056920;28;20524;-85
2021/04/01 05:00:03;;;;;;;21.07;12.40;;;12.70;99.90;;;;;;5055194;28;20453;-85
2021/04/01 05:05:14;;;;;;;18.70;11.13;;;12.60;99.90;;;;;;5053720;28;20413;-84
2021/04/01 05:07:40;;;;;;;20.97;12.90;;;12.70;99.90;;;;;;5063236;22;20505;-81
2021/04/01 05:10:07;;;;;;;20.77;13.17;;;12.40;99.90;;;;;;5049941;28;20442;-82
2021/04/01 05:12:33;;;;;;;19.00;13.73;;;12.50;99.90;;;;;;5048734;28;20471;-82
2021/04/01 05:14:59;;;;;;;19.90;14.57;;;12.70;99.90;;;;;;5049910;28;20446;-81
2021/04/01 05:17:26;;;;;;;20.90;14.30;;;12.40;99.90;;;;;;5051749;28;20462;-81
2021/04/01 05:19:57;;;;;;;20.80;13.23;;;13.00;99.90;;;;;;5052211;28;20442;-81
2021/04/01 05:22:30;;;;;;;27.20;14.40;;;12.80;99.90;;;;;;5053636;28;20845;-81
2021/04/01 05:24:57;;;;;;;22.03;12.83;;;;;;;;;;5051698;28;20405;-81
2021/04/01 05:27:25;;;;;;;19.87;12.60;;;12.90;99.90;;;;;;5052061;28;20478;-82
2021/04/01 05:30:00;;;;;;;21.67;14.37;;;12.30;99.90;;;;;;5046136;28;20788;-82
2021/04/01 05:32:29;;;;;;;19.77;12.90;;;12.80;99.90;;;;;;5041426;28;20441;-82
2021/04/01 05:34:56;;;;;;;21.30;12.60;;;12.70;99.90;;;;;;5040704;28;20465;-81
2021/04/01 05:37:25;;;;;;;23.23;13.13;;;12.70;99.90;;;;;;5040325;28;20616;-81
2021/04/01 05:39:52;;;;;;;19.67;13.00;;;12.50;99.90;;;;;;5041275;28;20442;-84
2021/04/01 05:42:20;;;;;;;19.40;13.57;;;12.60;99.90;;;;;;5040028;28;20427;-81
2021/04/01 05:44:49;;;;;;;21.10;13.33;;;12.80;99.90;;;;;;5042496;28;20460;-81
2021/04/01 05:47:18;;;;;;;20.33;13.70;;;12.80;99.90;;;;;;5043352;28;20470;-82
2021/04/01 05:49:58;;;;;;;20.80;13.70;;;12.80;99.90;;;;;;5040097;28;20953;-82
2021/04/01 05:53:07;;;;;;;28.07;13.60;;;13.00;99.90;;;;;;5041079;28;20470;-82
2021/04/01 05:56:20;;;;;;;19.00;13.03;;;13.00;99.90;;;;;;5040449;28;21011;-81
2021/04/01 05:59:18;;;;;;;25.97;14.10;;;13.40;99.90;;;;;;5040826;28;20484;-83
2021/04/01 06:02:00;;;;;;;25.07;14.10;;;12.80;99.90;;;;;;5058832;28;20461;-82
2021/04/01 06:04:35;;;;;;;30.67;14.60;;;13.00;99.90;;;;;;5059159;28;20442;-81
2021/04/01 06:07:09;;;;;;;20.17;13.40;;;13.00;99.90;;;;;;5049879;28;20960;-83
2021/04/01 06:09:42;;;;;;;24.30;14.57;;;13.10;99.90;;;;;;5043006;28;20438;-82
2021/04/01 06:12:09;;;;;;;18.20;13.30;;;13.20;99.90;;;;;;5042926;28;20556;-82
2021/04/01 06:14:59;;;;;;;19.13;13.10;;;13.30;99.90;;;;;;5041655;28;20516;-82
2021/04/01 06:17:27;;;;;;;23.60;12.57;;;13.40;99.90;;;;;;5041633;28;20477;-83
2021/04/01 06:19:56;;;;;;;20.17;13.47;;;13.30;99.90;;;;;;5055079;28;20442;-81
2021/04/01 06:22:24;;;;;;;22.03;13.93;;;13.20;99.90;;;;;;5055615;28;20458;-82
2021/04/01 06:24:52;;;;;;;25.23;13.50;;;12.90;99.90;;;;;;5049854;28;20446;-83
2021/04/01 06:27:23;;;;;;;19.07;12.90;;;13.00;99.90;;;;;;5041039;28;20477;-82
2021/04/01 06:32:38;;;;;;;30.63;14.97;;;13.80;99.90;;;;;;5039901;28;20474;-83
2021/04/01 06:35:14;;;;;;;29.33;14.60;;;11.90;99.90;;;;;;5040154;28;20434;-83
2021/04/01 06:38:03;;;;;;;23.13;14.77;;;13.60;99.90;;;;;;5041516;28;20556;-82
2021/04/01 06:40:37;;;;;;;22.57;14.70;;;12.00;99.90;;;;;;5040480;28;20446;-81
2021/04/01 06:43:14;;;;;;;25.87;14.47;;;13.60;99.90;;;;;;5039368;28;20419;-82
2021/04/01 06:45:42;;;;;;;21.70;14.80;;;13.60;99.90;;;;;;5039041;28;20438;-81
2021/04/01 06:48:11;;;;;;;22.40;14.23;;;13.90;99.90;;;;;;5039411;28;20965;-80
2021/04/01 06:50:37;;;;;;;24.97;15.00;;;14.00;99.90;;;;;;5039410;28;20884;-81
2021/04/01 06:53:06;;;;;;;28.73;16.70;;;14.00;99.90;;;;;;5038424;28;20489;-82
2021/04/01 06:55:35;;;;;;;26.33;14.40;;;13.80;99.90;;;;;;5038719;28;20825;-81
2021/04/01 06:58:14;;;;;;;26.90;15.40;;;14.20;99.90;;;;;;5039752;28;20494;-83
2021/04/01 07:00:49;;;;;;;25.37;15.40;;;14.10;99.90;;;;;;5039818;28;20780;-83
2021/04/01 07:03:19;;;;;;;22.03;14.43;;;14.40;99.90;;;;;;5044873;28;20430;-82
2021/04/01 07:05:52;;;;;;;29.10;17.33;;;14.60;99.90;;;;;;5044015;28;20443;-82
2021/04/01 07:08:23;;;;;;;24.97;17.27;;;14.70;99.90;;;;;;5047939;28;20498;-83
2021/04/01 07:10:56;;;;;;;24.30;15.50;;;14.70;99.90;;;;;;5040519;28;20937;-82
2021/04/01 07:13:28;;;;;;;27.53;14.73;;;14.90;99.90;;;;;;5039978;28;20489;-83
2021/04/01 07:16:00;;;;;;;28.23;15.63;;;14.30;99.90;;;;;;5039774;28;20427;-84
2021/04/01 07:18:34;;;;;;;23.03;16.53;;;14.70;99.90;;;;;;5038764;28;20470;-81
2021/04/01 07:21:30;;;;;;;24.30;16.57;;;14.40;99.90;;;;;;5039650;28;20431;-83
2021/04/01 07:32:37;;;;;;;27.50;16.37;;;14.90;99.90;;;;;;5005809;28;20497;-83
2021/04/01 07:46:30;;;;;;;30.03;17.30;;;15.10;99.90;;;;;;5037818;28;20410;-81
2021/04/01 07:49:02;;;;;;;29.13;16.83;;;15.30;99.90;;;;;;5038589;28;20454;-82
2021/04/01 07:51:50;;;;;;;31.43;16.40;;;15.40;99.90;;;;;;5040790;28;20431;-84
2021/04/01 07:54:16;;;;;;;28.00;17.10;;;15.30;99.90;;;;;;5040477;28;20513;-83
2021/04/01 07:56:47;;;;;;;28.70;16.77;;;15.60;99.90;;;;;;5039309;28;20461;-82
2021/04/01 07:59:25;;;;;;;37.10;18.00;;;;;;;;;;5039500;28;20813;-82
2021/04/01 08:02:01;;;;;;;26.03;16.40;;;15.40;99.90;;;;;;5047923;28;20434;-82
2021/04/01 08:04:28;;;;;;;36.67;18.33;;;15.60;99.90;;;;;;5050602;28;20517;-80
2021/04/01 08:07:09;;;;;;;28.73;17.80;;;15.50;99.90;;;;;;5049488;28;20454;-82
2021/04/01 08:09:40;;;;;;;29.47;18.63;;;15.40;99.90;;;;;;5052486;28;20490;-83
2021/04/01 08:12:22;;;;;;;26.80;17.20;;;15.30;99.90;;;;;;5049115;28;20518;-83
2021/04/01 08:14:55;;;;;;;32.53;18.20;;;15.60;99.90;;;;;;5047627;28;20422;-81
2021/04/01 08:17:27;;;;;;;30.97;19.07;;;15.40;99.90;;;;;;5052579;28;20976;-82
2021/04/01 08:19:59;;;;;;;28.53;18.57;;;15.80;99.90;;;;;;5050282;28;20499;-82
2021/04/01 08:22:29;;;;;;;31.63;17.90;;;15.40;99.90;;;;;;5047082;28;20431;-83
2021/04/01 08:25:03;;;;;;;35.87;20.27;;;16.00;99.90;;;;;;5047485;28;20888;-83
2021/04/01 08:27:42;;;;;;;31.80;20.23;;;16.70;99.90;;;;;;5042224;28;20458;-83
2021/04/01 08:33:03;;;;;;;37.33;20.37;;;17.40;99.90;;;;;;5047756;28;20478;-82
2021/04/01 08:35:33;;;;;;;40.87;21.20;;;17.30;99.20;;;;;;5043271;28;20427;-82
2021/04/01 08:38:10;;;;;;;33.53;20.40;;;16.70;98.60;;;;;;5045432;28;20466;-83
2021/04/01 08:40:37;;;;;;;31.53;19.07;;;16.60;98.90;;;;;;5041584;28;20453;-83
2021/04/01 08:43:36;;;;;;;37.60;20.50;;;16.70;98.70;;;;;;5038340;28;20945;-81
2021/04/01 08:46:21;;;;;;;38.30;20.23;;;16.90;99.00;;;;;;5038455;28;20457;-82
2021/04/01 08:48:59;;;;;;;36.63;20.13;;;17.00;97.50;;;;;;5040562;28;20533;-81
2021/04/01 08:52:03;;;;;;;39.80;20.70;;;16.80;98.20;;;;;;5038364;28;20443;-81
2021/04/01 08:54:34;;;;;;;37.83;19.70;;;16.90;98.10;;;;;;4997108;28;20494;-82
2021/04/01 08:57:06;;;;;;;31.87;18.93;;;16.70;97.20;;;;;;5037366;28;20475;-80
2021/04/01 08:59:41;;;;;;;35.00;19.03;;;16.70;96.40;;;;;;5038234;28;20498;-84
2021/04/01 09:02:13;;;;;;;34.63;18.60;;;16.80;97.20;;;;;;5037828;28;20500;-81
2021/04/01 09:04:47;;;;;;;36.63;19.30;;;16.60;97.30;;;;;;5037427;28;20517;-81
2021/04/01 09:07:18;;;;;;;33.60;20.40;;;16.50;98.00;;;;;;5042233;28;20482;-82
2021/04/01 09:09:50;;;;;;;28.50;19.07;;;16.80;99.90;;;;;;5040262;28;20435;-81
2021/04/01 09:12:23;;;;;;;29.90;18.83;;;16.60;97.60;;;;;;5043172;28;20500;-83
2021/04/01 09:15:00;;;;;;;36.70;19.60;;;16.60;98.90;;;;;;5040298;28;20427;-82
2021/04/01 09:17:31;;;;;;;36.40;20.17;;;16.60;97.30;;;;;;5041616;28;20982;-83
2021/04/01 09:19:58;;;;;;;34.17;19.20;;;16.40;98.20;;;;;;5041079;28;20568;-83
2021/04/01 09:22:29;;;;;;;40.53;18.87;;;16.40;96.90;;;;;;5039436;28;20473;-81
2021/04/01 09:24:55;;;;;;;34.70;19.33;;;;;;;;;;5039396;28;20446;-82
2021/04/01 09:27:22;;;;;;;41.33;21.80;;;16.20;98.20;;;;;;5038578;28;20458;-82
2021/04/01 09:29:50;;;;;;;29.33;18.90;;;15.80;99.90;;;;;;5038558;28;20445;-83
2021/04/01 09:32:22;;;;;;;28.13;19.10;;;16.60;99.90;;;;;;5044935;28;20479;-82
2021/04/01 09:34:51;;;;;;;42.07;19.87;;;16.80;99.90;;;;;;5054447;28;20431;-80
2021/04/01 09:37:20;;;;;;;31.10;17.87;;;16.80;99.90;;;;;;5057116;28;20477;-80
2021/04/01 09:39:46;;;;;;;33.73;18.50;;;16.60;99.90;;;;;;5056685;28;20473;-81
2021/04/01 09:42:15;;;;;;;48.20;19.23;;;16.50;99.90;;;;;;5055453;28;20453;-82
2021/04/01 09:44:52;;;;;;;38.57;18.97;;;16.40;98.20;;;;;;5045314;28;20455;-82
2021/04/01 09:47:24;;;;;;;34.40;19.90;;;17.00;99.00;;;;;;5043933;28;20476;-82
2021/04/01 09:49:55;;;;;;;33.93;19.53;;;17.00;99.90;;;;;;5043183;28;20431;-82
2021/04/01 09:52:27;;;;;;;35.17;20.97;;;17.30;99.80;;;;;;5042637;28;20427;-82
2021/04/01 09:54:58;;;;;;;39.60;20.70;;;17.00;99.90;;;;;;5042065;28;20430;-82
2021/04/01 09:57:43;;;;;;;29.60;18.40;;;17.20;99.90;;;;;;5043846;28;20462;-82
2021/04/01 10:00:18;;;;;;;37.60;20.80;;;16.90;99.70;;;;;;5043855;28;20462;-81
2021/04/01 10:02:56;;;;;;;36.80;21.30;;;17.30;99.30;;;;;;5049972;28;20427;-81
2021/04/01 10:05:23;;;;;;;33.13;19.37;;;17.00;99.10;;;;;;5053789;28;20435;-82
2021/04/01 10:07:57;;;;;;;35.57;20.67;;;17.40;98.80;;;;;;5057144;28;20546;-81
2021/04/01 10:10:38;;;;;;;32.60;20.70;;;17.20;99.10;;;;;;5055713;28;20438;-81
2021/04/01 10:13:18;;;;;;;41.40;22.20;;;17.40;99.50;;;;;;5053128;28;20483;-82
2021/04/01 10:15:45;;;;;;;33.73;21.77;;;17.40;97.70;;;;;;5044393;28;20442;-80
2021/04/01 10:18:19;;;;;;;35.00;21.20;;;17.80;98.00;;;;;;5043471;28;20466;-82
2021/04/01 10:20:53;;;;;;;36.87;21.90;;;17.70;98.50;;;;;;5043672;28;20427;-81
2021/04/01 10:23:21;;;;;;;38.70;20.90;;;17.60;99.90;;;;;;5044032;28;20518;-83
2021/04/01 10:25:53;;;;;;;39.73;21.80;;;17.80;98.10;;;;;;5040702;28;20456;-81
2021/04/01 10:28:32;;;;;;;33.50;19.30;;;17.40;97.60;;;;;;5040732;28;20467;-82
2021/04/01 10:31:07;;;;;;;33.23;20.97;;;17.10;99.10;;;;;;5045312;28;20431;-82
2021/04/01 10:33:40;;;;;;;34.60;20.63;;;17.40;99.90;;;;;;5053700;28;20520;-79
2021/04/01 10:36:08;;;;;;;34.63;21.07;;;17.20;99.90;;;;;;5051725;28;20439;-81
2021/04/01 10:38:37;;;;;;;34.10;21.10;;;17.30;98.90;;;;;;5054014;28;20477;-83
2021/04/01 10:41:16;;;;;;;33.77;20.57;;;17.20;99.90;;;;;;5047760;28;20447;-84
2021/04/01 10:43:44;;;;;;;36.90;23.67;;;17.40;99.90;;;;;;5047656;28;20494;-84
2021/04/01 10:46:16;;;;;;;33.43;20.13;;;17.70;99.90;;;;;;5055633;28;20450;-84
2021/04/01 10:48:48;;;;;;;38.60;23.07;;;17.70;99.90;;;;;;5050992;28;20846;-83
2021/04/01 10:51:17;;;;;;;34.47;21.77;;;17.60;99.00;;;;;;5044923;28;20431;-84
2021/04/01 10:53:45;;;;;;;38.63;22.13;;;;;;;;;;5043333;28;20487;-83
2021/04/01 10:56:14;;;;;;;44.97;22.97;;;;;;;;;;5044425;28;20945;-83
2021/04/01 10:58:54;;;;;;;39.00;22.77;;;17.10;98.80;;;;;;5050564;28;20485;-84
2021/04/01 11:01:24;;;;;;;41.63;23.90;;;17.00;99.10;;;;;;5046333;28;20517;-84
2021/04/01 11:03:58;;;;;;;44.77;24.17;;;17.20;98.70;;;;;;5045731;28;20528;-84
2021/04/01 11:06:27;;;;;;;42.60;23.03;;;17.00;98.00;;;;;;5043965;28;20434;-83
2021/04/01 11:08:58;;;;;;;41.57;23.77;;;17.00;97.90;;;;;;5078722;22;20494;-84
2021/04/01 11:11:38;;;;;;;49.30;25.77;;;17.00;98.30;;;;;;5049091;28;20434;-84
2021/04/01 11:14:05;;;;;;;44.93;25.53;;;17.00;99.00;;;;;;5047199;28;20481;-84
2021/04/01 11:16:34;;;;;;;44.77;24.00;;;16.60;98.90;;;;;;5044226;28;20439;-83
2021/04/01 11:19:02;;;;;;;66.60;33.40;;;16.80;99.30;;;;;;5044698;28;20474;-84
2021/04/01 11:21:32;;;;;;;51.40;26.37;;;16.70;99.90;;;;;;5055197;28;20453;-84
2021/04/01 11:24:00;;;;;;;37.43;20.97;;;16.70;99.90;;;;;;5055833;28;20446;-84
2021/04/01 11:26:30;;;;;;;42.13;22.50;;;16.80;99.90;;;;;;5055968;28;20434;-84
2021/04/01 11:28:59;;;;;;;44.80;21.10;;;16.70;99.90;;;;;;5056973;28;20454;-84
2021/04/01 11:31:27;;;;;;;46.40;23.30;;;16.80;99.90;;;;;;5057099;28;20465;-84
2021/04/01 11:33:55;;;;;;;40.17;23.00;;;17.00;99.90;;;;;;5056966;28;20478;-84
2021/04/01 11:36:23;;;;;;;40.27;21.97;;;17.10;99.90;;;;;;5056600;28;20451;-84
2021/04/01 11:38:55;;;;;;;38.23;21.43;;;16.60;99.90;;;;;;5055121;28;20480;-84
2021/04/01 11:41:25;;;;;;;33.30;20.03;;;17.00;99.90;;;;;;5046403;28;20435;-84
2021/04/01 11:43:53;;;;;;;45.30;24.33;;;17.30;99.90;;;;;;5048741;28;20424;-85
2021/04/01 11:46:21;;;;;;;38.93;23.73;;;17.30;99.90;;;;;;5054975;28;20525;-84
2021/04/01 11:48:49;;;;;;;41.70;22.93;;;17.10;99.90;;;;;;5053670;28;20470;-83
2021/04/01 11:51:19;;;;;;;40.10;23.67;;;17.60;99.90;;;;;;5051099;28;20528;-84
2021/04/01 11:53:46;;;;;;;40.53;22.50;;;17.20;99.90;;;;;;5043721;28;20545;-84
2021/04/01 11:56:12;;;;;;;40.87;24.23;;;17.30;99.90;;;;;;5042473;28;20449;-85
2021/04/01 11:58:39;;;;;;;43.33;24.70;;;17.10;99.30;;;;;;5041606;28;20493;-84
2021/04/01 12:01:09;;;;;;;43.57;22.80;;;17.10;99.70;;;;;;5046156;28;20469;-84
2021/04/01 12:03:50;;;;;;;42.73;21.97;;;16.70;99.90;;;;;;5049177;28;20865;-84
2021/04/01 12:06:17;;;;;;;41.50;22.50;;;17.10;99.90;;;;;;5045545;28;20975;-84
2021/04/01 12:08:43;;;;;;;41.60;22.63;;;17.30;99.90;;;;;;5045326;28;20477;-84
2021/04/01 12:11:09;;;;;;;41.13;22.67;;;16.30;99.90;;;;;;5044062;28;20852;-84
2021/04/01 12:13:35;;;;;;;41.80;23.63;;;17.30;99.90;;;;;;5045850;28;20490;-83
2021/04/01 12:16:14;;;;;;;51.90;21.97;;;17.50;99.70;;;;;;5051290;28;20453;-84
2021/04/01 12:18:41;;;;;;;43.47;21.67;;;17.30;99.90;;;;;;5051531;28;20464;-84
2021/04/01 12:21:08;;;;;;;39.27;20.60;;;17.20;99.30;;;;;;5052479;28;20455;-85
2021/04/01 12:23:43;;;;;;;45.90;24.17;;;17.20;99.50;;;;;;5053137;28;20443;-84
2021/04/01 12:26:09;;;;;;;37.77;21.20;;;17.90;98.50;;;;;;5050258;28;20426;-85
2021/04/01 12:28:35;;;;;;;44.17;21.40;;;17.30;98.70;;;;;;5048589;28;20460;-86
2021/04/01 12:31:02;;;;;;;47.10;23.40;;;17.20;98.30;;;;;;5047273;28;20458;-85
2021/04/01 12:33:36;;;;;;;46.33;22.67;;;16.80;99.90;;;;;;5048284;28;20544;-85
2021/04/01 12:36:05;;;;;;;40.03;21.10;;;17.10;98.30;;;;;;5053686;28;20502;-85
2021/04/01 12:38:33;;;;;;;34.03;20.37;;;17.00;99.90;;;;;;5053690;28;20510;-85
2021/04/01 12:41:02;;;;;;;35.50;22.37;;;16.40;99.30;;;;;;5053994;28;20469;-86
2021/04/01 12:43:32;;;;;;;41.40;21.97;;;16.90;99.10;;;;;;5053262;28;20450;-86
2021/04/01 12:45:59;;;;;;;39.90;21.73;;;16.50;99.10;;;;;;5052892;28;20446;-84
2021/04/01 12:48:37;;;;;;;34.80;20.23;;;17.10;98.40;;;;;;5053768;28;20466;-84
2021/04/01 12:51:05;;;;;;;38.00;20.43;;;16.90;97.90;;;;;;5055295;28;20501;-85
2021/04/01 12:53:32;;;;;;;37.33;21.83;;;17.30;97.80;;;;;;5056442;28;20529;-85
2021/04/01 12:56:00;;;;;;;40.93;20.83;;;17.50;96.60;;;;;;5056502;28;20488;-85
2021/04/01 12:58:35;;;;;;;43.80;24.93;;;17.70;96.10;;;;;;5054927;28;20526;-87
2021/04/01 13:01:15;;;;;;;37.47;20.10;;;18.00;96.40;;;;;;5054050;28;20438;-86
2021/04/01 13:03:42;;;;;;;39.27;18.50;;;18.10;94.20;;;;;;5053413;28;20446;-86
2021/04/01 13:06:12;;;;;;;38.47;21.80;;;;;;;;;;5054070;28;20514;-86
2021/04/01 13:11:24;;;;;;;43.07;24.63;;;17.80;95.90;;;;;;5054742;28;20421;-86
2021/04/01 13:13:51;;;;;;;38.60;23.20;;;16.90;98.10;;;;;;5054663;28;20534;-86
2021/04/01 13:16:18;;;;;;;40.20;23.17;;;17.80;99.20;;;;;;5055518;28;20510;-85
2021/04/01 13:18:45;;;;;;;44.67;23.70;;;18.10;99.90;;;;;;5055565;28;20459;-85
2021/04/01 13:21:33;;;;;;;38.70;22.10;;;18.00;99.80;;;;;;5056786;28;20548;-86